IBE235 LEAM-LEAL
Flight info
| Callsign | IBE235 |
|---|---|
| Flight time | N/A |
| Altitude | 16000 |
| Route | DOSEK N860 RESTU |
| Aircraft | CRJX/M-SDFGIRWY/S |
Departure
| Time | 2026-04-26 18:06 |
|---|---|
| Airport | Almería Airport (LEAM) |
Arrival
| Time | N/A |
|---|---|
| Airport | Alicante-Elche Miguel Hernández Airport (LEAL) |
| Time | Latitude | Longitude | Altitude | Speed | Heading |
|---|---|---|---|---|---|
| 2026-04-26 17:34 | 36.84653 | -2.37251 | 41 ft | 0 kts | 242° |
| 2026-04-26 18:01 | 36.84634 | -2.37290 | 41 ft | 18 kts | 230° |
| 2026-04-26 18:02 | 36.84533 | -2.37376 | 40 ft | 8 kts | 195° |
| 2026-04-26 18:02 | 36.84514 | -2.37379 | 40 ft | 9 kts | 187° |
| 2026-04-26 18:02 | 36.84454 | -2.37474 | 38 ft | 10 kts | 252° |
| 2026-04-26 18:02 | 36.84433 | -2.37562 | 37 ft | 11 kts | 252° |
| 2026-04-26 18:03 | 36.84409 | -2.37662 | 36 ft | 13 kts | 253° |
| 2026-04-26 18:03 | 36.84381 | -2.37774 | 35 ft | 14 kts | 252° |
| 2026-04-26 18:03 | 36.84350 | -2.37897 | 33 ft | 16 kts | 252° |
| 2026-04-26 18:03 | 36.84318 | -2.38035 | 31 ft | 17 kts | 254° |
| 2026-04-26 18:04 | 36.84279 | -2.38176 | 29 ft | 14 kts | 237° |
| 2026-04-26 18:04 | 36.84231 | -2.38176 | 28 ft | 7 kts | 124° |
| 2026-04-26 18:04 | 36.84217 | -2.38125 | 29 ft | 6 kts | 101° |
| 2026-04-26 18:05 | 36.84209 | -2.38063 | 30 ft | 3 kts | 99° |
| 2026-04-26 18:05 | 36.84200 | -2.37992 | 31 ft | 11 kts | 96° |
| 2026-04-26 18:05 | 36.84198 | -2.37945 | 32 ft | 15 kts | 91° |
| 2026-04-26 18:05 | 36.84210 | -2.37767 | 34 ft | 34 kts | 76° |
| 2026-04-26 18:06 | 36.84349 | -2.37197 | 42 ft | 103 kts | 73° |
| 2026-04-26 18:06 | 36.84723 | -2.35671 | 241 ft | 159 kts | 74° |
| 2026-04-26 18:06 | 36.84920 | -2.34774 | 746 ft | 157 kts | 76° |
| 2026-04-26 18:06 | 36.85190 | -2.33417 | 1511 ft | 166 kts | 76° |
| 2026-04-26 18:07 | 36.85504 | -2.32097 | 2292 ft | 168 kts | 70° |
| 2026-04-26 18:07 | 36.85881 | -2.30716 | 3123 ft | 168 kts | 69° |
| 2026-04-26 18:07 | 36.86262 | -2.29329 | 3923 ft | 169 kts | 69° |
| 2026-04-26 18:07 | 36.86504 | -2.28428 | 4431 ft | 167 kts | 69° |
| 2026-04-26 18:08 | 36.86946 | -2.26685 | 5292 ft | 164 kts | 69° |
| 2026-04-26 18:08 | 36.87274 | -2.25318 | 5856 ft | 169 kts | 69° |
| 2026-04-26 18:08 | 36.87674 | -2.23808 | 5994 ft | 196 kts | 65° |
| 2026-04-26 18:08 | 36.88654 | -2.22530 | 6146 ft | 217 kts | 30° |
| 2026-04-26 18:09 | 36.90020 | -2.21614 | 6531 ft | 228 kts | 26° |
| 2026-04-26 18:09 | 36.91457 | -2.20729 | 7002 ft | 233 kts | 26° |
| 2026-04-26 18:09 | 36.92977 | -2.19786 | 7239 ft | 259 kts | 26° |
| 2026-04-26 18:09 | 36.94658 | -2.18709 | 7500 ft | 284 kts | 27° |
| 2026-04-26 18:10 | 36.96431 | -2.17519 | 8183 ft | 291 kts | 28° |
| 2026-04-26 18:10 | 36.98211 | -2.16324 | 9181 ft | 284 kts | 28° |
| 2026-04-26 18:10 | 36.99934 | -2.15164 | 10183 ft | 282 kts | 28° |
| 2026-04-26 18:10 | 37.01227 | -2.14290 | 10660 ft | 286 kts | 27° |
| 2026-04-26 18:11 | 37.02995 | -2.13109 | 11325 ft | 291 kts | 27° |
| 2026-04-26 18:11 | 37.04783 | -2.11911 | 12080 ft | 292 kts | 28° |
| 2026-04-26 18:11 | 37.06592 | -2.10695 | 12757 ft | 297 kts | 28° |
| 2026-04-26 18:11 | 37.08431 | -2.09457 | 13455 ft | 302 kts | 28° |
| 2026-04-26 18:12 | 37.10289 | -2.08202 | 14160 ft | 304 kts | 28° |
| 2026-04-26 18:12 | 37.12169 | -2.06931 | 14801 ft | 308 kts | 28° |
| 2026-04-26 18:12 | 37.13940 | -2.05736 | 15413 ft | 311 kts | 28° |
| 2026-04-26 18:12 | 37.15878 | -2.04428 | 15785 ft | 324 kts | 28° |
| 2026-04-26 18:13 | 37.17917 | -2.03051 | 15974 ft | 342 kts | 28° |
| 2026-04-26 18:13 | 37.19998 | -2.01636 | 16042 ft | 361 kts | 28° |
| 2026-04-26 18:13 | 37.22316 | -2.00073 | 16101 ft | 381 kts | 28° |
| 2026-04-26 18:13 | 37.23297 | -1.99416 | 16113 ft | 386 kts | 28° |
| 2026-04-26 18:14 | 37.26496 | -1.97274 | 16103 ft | 391 kts | 28° |
| 2026-04-26 18:14 | 37.28914 | -1.95666 | 16101 ft | 395 kts | 27° |
| 2026-04-26 18:14 | 37.31372 | -1.94085 | 16095 ft | 398 kts | 27° |
| 2026-04-26 18:14 | 37.33733 | -1.92562 | 16104 ft | 401 kts | 27° |
| 2026-04-26 18:15 | 37.36223 | -1.90954 | 16101 ft | 403 kts | 27° |
| 2026-04-26 18:15 | 37.38697 | -1.89356 | 16105 ft | 406 kts | 27° |
| 2026-04-26 18:15 | 37.41248 | -1.87709 | 16102 ft | 408 kts | 27° |
| 2026-04-26 18:15 | 37.43626 | -1.86174 | 16104 ft | 410 kts | 27° |
| 2026-04-26 18:16 | 37.46169 | -1.84530 | 16102 ft | 410 kts | 27° |
| 2026-04-26 18:16 | 37.50911 | -1.81475 | 16061 ft | 358 kts | 27° |
| 2026-04-26 18:16 | 37.53100 | -1.80068 | 16065 ft | 353 kts | 27° |
| 2026-04-26 18:17 | 37.55299 | -1.78655 | 16070 ft | 355 kts | 27° |
| 2026-04-26 18:17 | 37.57508 | -1.77238 | 16087 ft | 357 kts | 27° |
| 2026-04-26 18:17 | 37.59727 | -1.75809 | 16091 ft | 359 kts | 27° |
| 2026-04-26 18:17 | 37.61959 | -1.74375 | 16099 ft | 360 kts | 27° |
| 2026-04-26 18:18 | 37.64198 | -1.72936 | 16100 ft | 362 kts | 27° |
| 2026-04-26 18:18 | 37.66416 | -1.71511 | 16102 ft | 363 kts | 27° |
| 2026-04-26 18:18 | 37.68698 | -1.70046 | 16104 ft | 364 kts | 27° |
| 2026-04-26 18:18 | 37.70819 | -1.68685 | 16099 ft | 365 kts | 28° |
| 2026-04-26 18:19 | 37.73084 | -1.67232 | 16095 ft | 365 kts | 28° |
| 2026-04-26 18:19 | 37.75351 | -1.65776 | 16094 ft | 365 kts | 28° |
| 2026-04-26 18:19 | 37.77617 | -1.64318 | 16096 ft | 366 kts | 28° |
| 2026-04-26 18:19 | 37.79887 | -1.62858 | 16096 ft | 366 kts | 27° |
| 2026-04-26 18:20 | 37.82163 | -1.61391 | 16105 ft | 366 kts | 28° |
| 2026-04-26 18:20 | 37.84440 | -1.59925 | 16110 ft | 367 kts | 27° |
| 2026-04-26 18:20 | 37.86687 | -1.58478 | 16117 ft | 367 kts | 27° |
| 2026-04-26 18:20 | 37.88157 | -1.57532 | 16119 ft | 368 kts | 28° |
| 2026-04-26 18:21 | 37.91201 | -1.55576 | 16125 ft | 359 kts | 28° |
| 2026-04-26 18:21 | 37.93338 | -1.54203 | 16108 ft | 330 kts | 28° |
| 2026-04-26 18:21 | 37.95303 | -1.52943 | 16076 ft | 304 kts | 28° |
| 2026-04-26 18:21 | 37.97078 | -1.51812 | 16053 ft | 281 kts | 28° |
| 2026-04-26 18:22 | 37.98716 | -1.50776 | 16043 ft | 260 kts | 28° |
| 2026-04-26 18:22 | 38.00252 | -1.49812 | 16030 ft | 240 kts | 28° |
| 2026-04-26 18:22 | 38.01689 | -1.48917 | 16021 ft | 221 kts | 28° |
| 2026-04-26 18:22 | 38.03048 | -1.48075 | 16026 ft | 213 kts | 28° |
| 2026-04-26 18:23 | 38.04353 | -1.47271 | 16034 ft | 204 kts | 28° |
| 2026-04-26 18:23 | 38.05603 | -1.46509 | 16036 ft | 194 kts | 27° |
| 2026-04-26 18:23 | 38.06795 | -1.45791 | 16042 ft | 190 kts | 28° |
| 2026-04-26 18:23 | 38.08047 | -1.45033 | 16110 ft | 211 kts | 27° |
| 2026-04-26 18:24 | 38.09446 | -1.44173 | 16176 ft | 236 kts | 27° |
| 2026-04-26 18:24 | 38.11007 | -1.43207 | 16222 ft | 262 kts | 27° |
| 2026-04-26 18:24 | 38.12724 | -1.42139 | 16245 ft | 288 kts | 28° |
| 2026-04-26 18:24 | 38.14608 | -1.40958 | 16247 ft | 315 kts | 27° |
| 2026-04-26 18:25 | 38.16659 | -1.39674 | 16238 ft | 340 kts | 27° |
| 2026-04-26 18:25 | 38.18857 | -1.38290 | 16180 ft | 364 kts | 29° |
| 2026-04-26 18:25 | 38.20924 | -1.36305 | 16023 ft | 386 kts | 48° |
| 2026-04-26 18:25 | 38.22386 | -1.33385 | 15677 ft | 388 kts | 68° |
| 2026-04-26 18:26 | 38.23227 | -1.30262 | 15344 ft | 370 kts | 73° |
| 2026-04-26 18:26 | 38.23946 | -1.27188 | 14986 ft | 356 kts | 75° |
| 2026-04-26 18:26 | 38.24458 | -1.24168 | 14616 ft | 344 kts | 80° |
| 2026-04-26 18:26 | 38.24816 | -1.21297 | 14277 ft | 335 kts | 82° |
| 2026-04-26 18:27 | 38.25145 | -1.18385 | 13909 ft | 327 kts | 82° |
| 2026-04-26 18:27 | 38.25306 | -1.15527 | 13503 ft | 320 kts | 88° |
| 2026-04-26 18:27 | 38.25338 | -1.12722 | 13104 ft | 314 kts | 89° |
| 2026-04-26 18:27 | 38.25343 | -1.09967 | 12715 ft | 309 kts | 90° |
| 2026-04-26 18:28 | 38.25340 | -1.08008 | 12439 ft | 306 kts | 90° |
| 2026-04-26 18:28 | 38.25334 | -1.05321 | 12060 ft | 301 kts | 90° |
| 2026-04-26 18:28 | 38.25328 | -1.02674 | 11686 ft | 297 kts | 90° |
| 2026-04-26 18:28 | 38.25318 | -1.00066 | 11303 ft | 293 kts | 90° |
| 2026-04-26 18:29 | 38.25308 | -0.98131 | 11043 ft | 290 kts | 90° |
| 2026-04-26 18:29 | 38.25305 | -0.95566 | 10676 ft | 287 kts | 87° |
| 2026-04-26 18:29 | 38.25826 | -0.93181 | 10308 ft | 285 kts | 62° |
| 2026-04-26 18:29 | 38.26930 | -0.91101 | 9967 ft | 283 kts | 55° |
| 2026-04-26 18:30 | 38.28104 | -0.89112 | 9586 ft | 280 kts | 54° |
| 2026-04-26 18:30 | 38.29269 | -0.87202 | 9182 ft | 275 kts | 53° |
| 2026-04-26 18:30 | 38.30472 | -0.85264 | 8157 ft | 285 kts | 53° |
| 2026-04-26 18:30 | 38.31701 | -0.83292 | 7233 ft | 278 kts | 52° |
| 2026-04-26 18:31 | 38.32884 | -0.81321 | 6205 ft | 280 kts | 59° |
| 2026-04-26 18:31 | 38.33493 | -0.78991 | 5152 ft | 280 kts | 86° |
| 2026-04-26 18:31 | 38.33185 | -0.76606 | 4307 ft | 260 kts | 107° |
| 2026-04-26 18:31 | 38.32540 | -0.74627 | 3822 ft | 226 kts | 121° |
| 2026-04-26 18:32 | 38.31698 | -0.73093 | 3583 ft | 189 kts | 121° |
| 2026-04-26 18:32 | 38.31193 | -0.71754 | 3245 ft | 159 kts | 119° |
| 2026-04-26 18:32 | 38.30653 | -0.70628 | 2908 ft | 134 kts | 110° |
| 2026-04-26 18:32 | 38.30288 | -0.69563 | 2412 ft | 132 kts | 111° |
| 2026-04-26 18:33 | 38.29917 | -0.68577 | 2028 ft | 114 kts | 111° |
| 2026-04-26 18:33 | 38.29688 | -0.67614 | 1385 ft | 114 kts | 101° |
| 2026-04-26 18:33 | 38.29517 | -0.66656 | 817 ft | 108 kts | 101° |